Meath Environmental Platform

Observations

Time Sensor AQI SAQ Temp °C Hum % Pres Pa CO μg/m³ H₂S μg/m³ NO μg/m³ NO₂ μg/m³ O₃ μg/m³ SO₂ μg/m³ CO₂e PPM VOC PPM PM1 μg/m³ PM2.5 μg/m³ PM4 μg/m³ PM10 μg/m³ TPS µm
Wednesday 12 August 2026
19:23 Trim Patrick St 4 31.7 38 69,442 0 38.72 0.3 38.21 67.99 22.38 3.71 9.57 10.53
19:23 Trim Market St 3 30.8 38 66,145 0 7.38 0.4 24.27 77.58 0 2.14 4.56 5.02
19:22 Trim Patrick St 4 31.7 38 69,458 0 39.36 0.33 38.44 72.72 22.5 4.57 11.14 12.26
19:21 Trim Patrick St 4 31.8 37 69,452 0 43.07 0.32 35.19 80.71 23.4 5.43 11.18 12.3
19:20 Trim Patrick St 4 31.9 37 69,467 0 41.26 0.3 36.39 81.61 23.44 3.71 10.38 11.42
19:20 Trim Market St 3 30.9 38 66,163 0 8.71 0.37 24.31 76.11 0 2.85 5.64 5.89
19:19 Trim Patrick St 4 32 37 69,483 0 39.11 0.31 27.27 86.99 23.92 3.71 10.43 11.47
19:18 Trim Patrick St 4 32.1 37 69,481 0 39.4 0.3 26.99 91.55 23.89 5.43 11.99 13.19
19:18 Trim Market St 3 31 38 66,206 0 6.91 0.38 19.13 76.73 0 1.43 4.58 5.04
19:17 Trim Patrick St 4 32.2 36 69,473 0 40.47 0.29 30.77 74.45 23.96 4.57 12.02 13.23
19:16 Trim Patrick St 4 32.3 36 69,464 0 40.87 0.28 35.49 72.97 24.1 4.57 10.45 11.49
19:15 Trim Patrick St 4 32.4 36 69,479 0 39.27 0.28 25.32 90.17 24.43 5.43 11.26 12.39
19:14 Trim Patrick St 4 32.5 36 69,499 0 43.36 0.27 29.13 86.44 24.7 4.57 11.26 12.39
19:13 Trim Patrick St 4 32.7 36 69,497 0 43.86 0.25 37.44 80.22 24.93 4.57 11.28 12.4
19:12 Trim Patrick St 4 32.8 36 69,493 0 41.78 0.24 30.05 77.07 24.56 2.86 8.12 8.93
19:12 Trim Market St 3 31.4 37 66,234 0 6.18 0.32 15.1 84.91 0 2.14 6.21 8.35
19:11 Trim Patrick St 4 32.9 36 69,513 0 41.37 0.23 25.98 100.62 25.49 5.43 12.09 13.3
19:10 Trim Patrick St 4 33 35 69,511 0 33.96 0.22 18.2 89.5 24.18 5.43 11.31 12.44
19:10 Trim Market St 3 31.5 37 66,219 0 7.92 0.31 15.98 85.24 0 2.85 5.7 6.7
19:09 Trim Patrick St 4 33.2 35 69,507 0 39.77 0.21 32.47 77.26 24.21 5.43 11.32 12.45